createdAt,value
2022-10-14T00:01:18.792Z,100762.23
2022-10-14T00:04:20.146Z,100762.54
2022-10-14T00:06:57.001Z,100761.45
2022-10-14T00:09:28.480Z,100756.89
2022-10-14T00:12:00.621Z,100751.42
2022-10-14T00:17:17.565Z,100746.94
2022-10-14T00:19:48.147Z,100744.11
2022-10-14T00:22:19.187Z,100743.98
2022-10-14T00:24:56.134Z,100745.83
2022-10-14T00:27:34.413Z,100742.23
2022-10-14T00:30:15.232Z,100740.09
2022-10-14T00:32:44.281Z,100737.92
2022-10-14T00:35:13.424Z,100740.27
2022-10-14T00:37:48.848Z,100738.10
2022-10-14T00:40:20.307Z,100735.06
2022-10-14T00:42:56.458Z,100734.52
2022-10-14T00:45:35.432Z,100733.20
2022-10-14T00:48:10.234Z,100731.38
2022-10-14T00:50:42.173Z,100728.64
2022-10-14T00:53:14.270Z,100729.30
2022-10-14T00:55:52.799Z,100730.86
2022-10-14T01:06:10.991Z,100716.70
2022-10-14T01:09:13.063Z,100717.96
2022-10-14T01:12:30.122Z,100719.20
2022-10-14T01:15:23.532Z,100728.13
2022-10-14T01:18:26.976Z,100723.77
2022-10-14T01:21:35.032Z,100718.96
2022-10-14T01:24:23.345Z,100714.89
2022-10-14T01:27:00.175Z,100710.42
2022-10-14T01:29:49.283Z,100706.46
2022-10-14T01:32:32.897Z,100706.15
2022-10-14T01:35:18.538Z,100701.00
2022-10-14T01:38:01.469Z,100697.14
2022-10-14T01:40:44.810Z,100701.27
2022-10-14T01:43:20.946Z,100705.25
2022-10-14T01:46:04.069Z,100705.09
2022-10-14T01:48:38.031Z,100700.05
2022-10-14T01:51:14.894Z,100694.45
2022-10-14T01:54:19.862Z,100692.95
2022-10-14T01:56:55.016Z,100692.55
2022-10-14T01:59:34.540Z,100690.17
2022-10-14T02:02:08.225Z,100689.00
2022-10-14T02:04:46.012Z,100688.55
2022-10-14T02:07:42.694Z,100690.33
2022-10-14T02:10:22.442Z,100684.51
2022-10-14T02:13:28.225Z,100685.42
2022-10-14T02:16:19.209Z,100684.52
2022-10-14T02:19:24.903Z,100675.25
2022-10-14T02:22:35.718Z,100674.50
2022-10-14T02:25:33.423Z,100673.08
2022-10-14T02:28:15.561Z,100671.87
2022-10-14T02:31:02.826Z,100670.23
2022-10-14T02:33:41.954Z,100668.75
2022-10-14T02:36:24.028Z,100667.59
2022-10-14T02:38:57.186Z,100667.43
2022-10-14T02:41:32.675Z,100666.67
2022-10-14T02:44:11.409Z,100664.59
2022-10-14T02:46:45.580Z,100664.59
2022-10-14T02:49:23.997Z,100663.95
2022-10-14T02:52:03.564Z,100662.42
2022-10-14T02:54:39.062Z,100658.84
2022-10-14T02:57:11.482Z,100657.27
2022-10-14T02:59:50.937Z,100654.27
2022-10-14T03:02:29.757Z,100653.22
2022-10-14T03:04:59.663Z,100655.52
2022-10-14T03:07:51.651Z,100654.43
2022-10-14T03:10:22.766Z,100658.40
2022-10-14T03:12:52.425Z,100657.06
2022-10-14T03:15:24.704Z,100655.27
2022-10-14T03:18:22.507Z,100650.91
2022-10-14T03:21:04.540Z,100647.08
2022-10-14T03:23:41.797Z,100647.56
2022-10-14T03:26:13.955Z,100649.30
2022-10-14T03:28:45.669Z,100646.39
2022-10-14T03:31:14.995Z,100646.33
2022-10-14T03:33:46.770Z,100643.21
2022-10-14T03:36:16.552Z,100645.02
2022-10-14T03:38:45.915Z,100650.92
2022-10-14T03:41:15.345Z,100652.41
2022-10-14T03:43:45.371Z,100646.98
2022-10-14T03:46:22.348Z,100643.06
2022-10-14T03:48:51.667Z,100639.67
2022-10-14T03:51:21.837Z,100639.11
2022-10-14T03:53:52.830Z,100635.73
2022-10-14T03:56:22.943Z,100635.23
2022-10-14T03:58:58.009Z,100638.55
2022-10-14T04:01:31.083Z,100636.98
2022-10-14T04:04:00.472Z,100638.42
2022-10-14T04:06:29.583Z,100637.16
2022-10-14T04:09:01.612Z,100637.42
2022-10-14T04:11:31.035Z,100632.63
2022-10-14T04:14:01.543Z,100630.41
2022-10-14T04:16:32.971Z,100624.36
2022-10-14T04:19:02.437Z,100624.32
2022-10-14T04:21:35.228Z,100623.21
2022-10-14T04:24:13.379Z,100618.16
2022-10-14T04:26:44.162Z,100615.22
2022-10-14T04:29:16.794Z,100613.64
2022-10-14T04:31:53.474Z,100611.23
2022-10-14T04:35:00.032Z,100609.48
2022-10-14T04:37:40.655Z,100604.13
2022-10-14T04:40:23.831Z,100593.21
2022-10-14T04:43:06.210Z,100588.17
2022-10-14T04:45:36.187Z,100591.20
2022-10-14T04:48:23.001Z,100591.40
2022-10-14T04:51:03.440Z,100592.59
2022-10-14T04:53:42.310Z,100587.83
2022-10-14T04:56:14.505Z,100586.20
2022-10-14T04:58:50.046Z,100588.13
2022-10-14T05:01:33.637Z,100591.94
2022-10-14T05:04:12.705Z,100591.75
2022-10-14T05:07:01.703Z,100588.80
2022-10-14T05:09:55.449Z,100591.67
2022-10-14T05:12:31.546Z,100594.10
2022-10-14T05:15:02.381Z,100589.36
2022-10-14T05:17:32.898Z,100583.84
2022-10-14T05:20:02.767Z,100583.60
2022-10-14T05:22:41.885Z,100587.95
2022-10-14T05:25:20.660Z,100591.87
2022-10-14T05:28:03.086Z,100587.76
2022-10-14T05:30:51.117Z,100583.66
2022-10-14T05:33:26.671Z,100579.15
2022-10-14T05:36:01.278Z,100576.84
2022-10-14T05:38:42.761Z,100580.89
2022-10-14T05:41:23.355Z,100579.80
2022-10-14T05:43:54.762Z,100579.07
2022-10-14T05:46:33.458Z,100582.53
2022-10-14T05:49:14.427Z,100588.15
2022-10-14T05:51:45.364Z,100585.83
2022-10-14T05:54:28.947Z,100585.08
2022-10-14T05:57:01.036Z,100584.27
2022-10-14T05:59:35.951Z,100582.05
2022-10-14T06:02:09.726Z,100582.81
2022-10-14T06:04:45.266Z,100588.45
2022-10-14T06:07:41.199Z,100590.19
2022-10-14T06:10:14.532Z,100587.36
2022-10-14T06:12:57.298Z,100589.49
2022-10-14T06:15:40.161Z,100590.04
2022-10-14T06:18:26.946Z,100587.91
2022-10-14T06:24:52.594Z,100597.31
2022-10-14T06:27:38.316Z,100598.46
2022-10-14T06:30:27.134Z,100597.50
2022-10-14T06:33:04.310Z,100596.62
2022-10-14T06:35:46.450Z,100594.11
2022-10-14T06:38:26.152Z,100594.14
2022-10-14T06:41:04.883Z,100601.41
2022-10-14T06:43:40.564Z,100606.81
2022-10-14T06:46:28.519Z,100609.55
2022-10-14T06:49:25.032Z,100608.06
2022-10-14T06:52:00.360Z,100606.89
2022-10-14T06:54:36.797Z,100605.20
2022-10-14T06:57:15.146Z,100613.36
2022-10-14T06:59:54.614Z,100616.97
2022-10-14T07:03:01.270Z,100616.56
2022-10-14T07:05:32.979Z,100614.94
2022-10-14T07:08:20.734Z,100620.13
2022-10-14T07:11:04.245Z,100617.73
2022-10-14T07:13:57.112Z,100614.06
2022-10-14T07:16:45.670Z,100613.04
2022-10-14T07:19:22.731Z,100614.13
2022-10-14T07:21:56.311Z,100610.84
2022-10-14T07:24:36.414Z,100607.80
2022-10-14T07:27:21.782Z,100604.30
2022-10-14T07:30:20.512Z,100597.42
2022-10-14T07:33:02.817Z,100591.66
2022-10-14T07:35:36.299Z,100592.95
2022-10-14T07:38:11.488Z,100596.88
2022-10-14T07:41:19.042Z,100601.89
2022-10-14T07:44:13.871Z,100597.00
2022-10-14T07:46:52.494Z,100596.93
2022-10-14T07:49:51.368Z,100596.58
2022-10-14T07:52:30.253Z,100597.84
2022-10-14T07:55:00.096Z,100596.36
2022-10-14T07:57:39.362Z,100594.58
2022-10-14T08:00:25.556Z,100591.36
2022-10-14T08:03:06.357Z,100592.55
2022-10-14T08:05:47.953Z,100592.38
2022-10-14T08:08:33.272Z,100597.02
2022-10-14T08:11:48.240Z,100592.23
2022-10-14T08:14:24.526Z,100590.36
2022-10-14T08:17:06.862Z,100590.36
2022-10-14T08:19:36.412Z,100590.11
2022-10-14T08:22:20.767Z,100587.45
2022-10-14T08:25:02.575Z,100586.48
2022-10-14T08:27:32.604Z,100586.08
2022-10-14T08:30:11.247Z,100584.05
2022-10-14T08:32:45.710Z,100580.08
2022-10-14T08:35:40.593Z,100579.85
2022-10-14T08:38:15.152Z,100580.39
2022-10-14T08:41:17.183Z,100582.21
2022-10-14T08:43:58.592Z,100583.55
2022-10-14T08:46:40.521Z,100583.48
2022-10-14T08:49:42.430Z,100583.55
2022-10-14T08:52:45.446Z,100579.55
2022-10-14T08:55:24.466Z,100582.11
2022-10-14T08:58:29.552Z,100585.50
2022-10-14T09:01:45.227Z,100592.84
2022-10-14T09:04:39.879Z,100590.02
2022-10-14T09:07:18.655Z,100582.98
2022-10-14T09:09:59.977Z,100583.92
2022-10-14T09:12:34.082Z,100583.46
2022-10-14T09:15:59.238Z,100579.77
2022-10-14T09:18:59.781Z,100582.13
2022-10-14T09:21:57.992Z,100582.55
2022-10-14T09:25:01.907Z,100584.02
2022-10-14T09:30:20.121Z,100576.50
2022-10-14T09:32:57.303Z,100577.03
2022-10-14T09:35:45.485Z,100572.04
2022-10-14T09:38:47.101Z,100575.09
2022-10-14T09:41:28.698Z,100568.77
2022-10-14T09:44:25.408Z,100568.27
2022-10-14T09:47:15.415Z,100565.21
2022-10-14T09:50:24.481Z,100570.73
2022-10-14T09:53:30.538Z,100567.67
2022-10-14T09:56:40.736Z,100566.30
2022-10-14T09:59:30.331Z,100563.85
2022-10-14T10:02:31.687Z,100564.17
2022-10-14T10:05:27.253Z,100561.06
2022-10-14T10:08:16.904Z,100559.55
2022-10-14T10:11:37.642Z,100557.75
2022-10-14T10:14:44.976Z,100556.66
2022-10-14T10:17:36.785Z,100554.13
2022-10-14T10:20:41.207Z,100550.80
2022-10-14T10:23:27.100Z,100547.24
2022-10-14T10:26:31.155Z,100550.02
2022-10-14T10:29:29.663Z,100546.80
2022-10-14T10:32:29.154Z,100541.75
2022-10-14T10:35:22.318Z,100540.16
2022-10-14T10:38:25.973Z,100534.65
2022-10-14T10:41:24.241Z,100539.95
2022-10-14T10:44:11.850Z,100538.60
2022-10-14T10:47:19.767Z,100534.17
2022-10-14T10:50:13.248Z,100530.14
2022-10-14T10:53:05.170Z,100529.91
2022-10-14T10:55:55.035Z,100528.02
2022-10-14T10:59:05.471Z,100524.02
2022-10-14T11:02:15.073Z,100522.98
2022-10-14T11:05:08.785Z,100520.03
2022-10-14T11:08:29.651Z,100513.45
2022-10-14T11:11:51.052Z,100516.80
2022-10-14T11:14:34.911Z,100513.48
2022-10-14T11:17:12.889Z,100506.76
2022-10-14T11:20:47.555Z,100507.35
2022-10-14T11:23:41.313Z,100507.45
2022-10-14T11:27:03.653Z,100507.80
2022-10-14T11:29:58.422Z,100509.29
2022-10-14T11:32:52.277Z,100505.77
2022-10-14T11:35:39.878Z,100496.64
2022-10-14T11:38:43.715Z,100488.92
2022-10-14T11:41:52.103Z,100487.31
2022-10-14T11:44:50.366Z,100488.08
2022-10-14T11:47:28.548Z,100486.80
2022-10-14T11:50:33.847Z,100484.73
2022-10-14T11:53:34.398Z,100481.78
2022-10-14T11:56:31.549Z,100475.47
2022-10-14T12:00:06.223Z,100472.48
2022-10-14T12:02:52.374Z,100471.50
2022-10-14T12:05:51.317Z,100469.09
2022-10-14T12:09:03.181Z,100464.66
2022-10-14T12:11:42.116Z,100460.44
2022-10-14T12:17:49.766Z,100463.84
2022-10-14T12:20:50.249Z,100462.87
2022-10-14T12:23:41.423Z,100460.48
2022-10-14T12:26:26.770Z,100459.75
2022-10-14T12:29:44.897Z,100460.95
2022-10-14T12:32:24.933Z,100452.78
2022-10-14T12:35:51.247Z,100455.90
2022-10-14T12:38:39.890Z,100457.88
2022-10-14T12:41:46.133Z,100456.11
2022-10-14T12:45:03.448Z,100450.43
2022-10-14T12:47:39.696Z,100451.30
2022-10-14T12:50:15.989Z,100452.44
2022-10-14T12:53:11.008Z,100446.83
2022-10-14T12:55:55.773Z,100449.31
2022-10-14T12:59:23.146Z,100448.41
2022-10-14T13:02:46.566Z,100447.34
2022-10-14T13:05:54.386Z,100441.84
2022-10-14T13:08:37.426Z,100444.88
2022-10-14T13:11:15.174Z,100446.84
2022-10-14T13:14:02.856Z,100446.79
2022-10-14T13:16:49.118Z,100446.08
2022-10-14T13:19:47.377Z,100445.08
2022-10-14T13:22:35.736Z,100439.47
2022-10-14T13:25:26.236Z,100436.15
2022-10-14T13:29:02.338Z,100435.50
2022-10-14T13:31:45.345Z,100436.11
2022-10-14T13:34:50.734Z,100434.98
2022-10-14T13:38:16.542Z,100431.44
2022-10-14T13:41:16.097Z,100435.41
2022-10-14T13:43:54.628Z,100437.32
2022-10-14T13:47:11.545Z,100435.24
2022-10-14T13:49:53.035Z,100431.59
2022-10-14T13:52:35.698Z,100426.23
2022-10-14T13:55:30.958Z,100427.94
2022-10-14T13:58:13.778Z,100428.27
2022-10-14T14:01:30.965Z,100422.79
2022-10-14T14:04:07.575Z,100425.83
2022-10-14T14:07:03.549Z,100429.77
2022-10-14T14:09:59.748Z,100429.08
2022-10-14T14:12:54.039Z,100428.44
2022-10-14T14:15:37.416Z,100428.09
2022-10-14T14:18:33.926Z,100429.84
2022-10-14T14:21:34.074Z,100426.58
2022-10-14T14:24:36.699Z,100427.64
2022-10-14T14:27:35.191Z,100424.46
2022-10-14T14:30:42.475Z,100421.00
2022-10-14T14:33:43.662Z,100421.39
2022-10-14T14:36:27.832Z,100418.30
2022-10-14T14:39:04.248Z,100415.56
2022-10-14T14:41:52.573Z,100418.86
2022-10-14T14:47:32.969Z,100415.34
2022-10-14T14:53:19.232Z,100409.36
2022-10-14T14:55:54.909Z,100408.77
2022-10-14T14:58:46.680Z,100408.66
2022-10-14T15:01:27.074Z,100409.99
2022-10-14T15:04:12.430Z,100413.11
2022-10-14T15:07:23.105Z,100413.74
2022-10-14T15:10:39.737Z,100413.36
2022-10-14T15:13:53.749Z,100412.40
2022-10-14T15:16:42.295Z,100407.55
2022-10-14T15:19:59.820Z,100404.31
2022-10-14T15:22:38.900Z,100403.00
2022-10-14T15:25:36.999Z,100403.09
2022-10-14T15:28:46.235Z,100403.58
2022-10-14T15:31:27.006Z,100401.05
2022-10-14T15:34:25.506Z,100400.59
2022-10-14T15:37:09.137Z,100397.44
2022-10-14T15:40:16.740Z,100395.08
2022-10-14T15:43:01.380Z,100394.19
2022-10-14T15:45:48.331Z,100392.77
2022-10-14T15:48:28.392Z,100392.38
2022-10-14T15:51:14.414Z,100393.77
2022-10-14T15:54:03.802Z,100391.73
2022-10-14T15:56:41.533Z,100391.14
2022-10-14T15:59:16.574Z,100395.89
2022-10-14T16:02:18.685Z,100391.05
2022-10-14T16:05:18.266Z,100390.84
2022-10-14T16:07:58.798Z,100391.68
2022-10-14T16:10:40.043Z,100393.02
2022-10-14T16:13:18.654Z,100394.91
2022-10-14T16:15:59.585Z,100395.41
2022-10-14T16:18:39.039Z,100398.23
2022-10-14T16:21:30.812Z,100399.63
2022-10-14T16:24:16.210Z,100402.42
2022-10-14T16:26:51.066Z,100401.67
2022-10-14T16:29:28.313Z,100406.25
2022-10-14T16:32:08.638Z,100405.70
2022-10-14T16:34:53.873Z,100404.23
2022-10-14T16:37:30.403Z,100404.89
2022-10-14T16:40:11.900Z,100405.54
2022-10-14T16:42:47.151Z,100409.20
2022-10-14T16:45:23.127Z,100405.74
2022-10-14T16:48:06.694Z,100405.33
2022-10-14T16:50:52.546Z,100406.34
2022-10-14T16:53:46.539Z,100405.04
2022-10-14T16:56:59.137Z,100409.02
2022-10-14T16:59:34.190Z,100408.41
2022-10-14T17:02:06.560Z,100408.86
2022-10-14T17:04:52.868Z,100408.65
2022-10-14T17:07:37.610Z,100411.81
2022-10-14T17:10:11.753Z,100408.59
2022-10-14T17:13:03.984Z,100411.02
2022-10-14T17:16:19.792Z,100406.48
2022-10-14T17:19:23.184Z,100407.57
2022-10-14T17:22:04.467Z,100411.20
2022-10-14T17:24:37.933Z,100412.15
2022-10-14T17:27:29.415Z,100412.95
2022-10-14T17:30:15.240Z,100413.55
2022-10-14T17:33:24.396Z,100411.20
2022-10-14T17:36:01.848Z,100405.11
2022-10-14T17:38:46.972Z,100402.23
2022-10-14T17:41:28.879Z,100402.55
2022-10-14T17:44:04.991Z,100401.42
2022-10-14T17:46:56.552Z,100403.67
2022-10-14T17:49:41.204Z,100402.66
2022-10-14T17:52:11.936Z,100400.61
2022-10-14T17:54:58.860Z,100398.11
2022-10-14T17:57:57.821Z,100400.53
2022-10-14T18:00:32.621Z,100400.28
2022-10-14T18:03:03.932Z,100400.70
2022-10-14T18:05:49.061Z,100400.59
2022-10-14T18:08:30.875Z,100401.91
2022-10-14T18:11:14.116Z,100401.14
2022-10-14T18:14:01.592Z,100400.70
2022-10-14T18:16:44.296Z,100396.15
2022-10-14T18:19:17.481Z,100395.66
2022-10-14T18:21:57.477Z,100391.66
2022-10-14T18:24:50.594Z,100394.41
2022-10-14T18:27:43.726Z,100396.45
2022-10-14T18:30:19.813Z,100392.76
2022-10-14T18:33:13.562Z,100390.93
2022-10-14T18:35:54.607Z,100392.63
2022-10-14T18:38:38.348Z,100391.09
2022-10-14T18:41:20.229Z,100398.95
2022-10-14T18:44:14.261Z,100401.85
2022-10-14T18:46:57.932Z,100399.15
2022-10-14T18:49:50.276Z,100396.42
2022-10-14T18:52:25.368Z,100398.31
2022-10-14T18:55:15.524Z,100397.55
2022-10-14T18:57:52.105Z,100395.39
2022-10-14T19:00:27.663Z,100395.90
2022-10-14T19:03:29.936Z,100396.16
2022-10-14T19:06:08.844Z,100394.48
2022-10-14T19:09:08.179Z,100394.63
2022-10-14T19:12:04.210Z,100393.98
2022-10-14T19:14:50.639Z,100394.61
2022-10-14T19:18:02.132Z,100393.91
2022-10-14T19:20:37.112Z,100392.30
2022-10-14T19:23:26.272Z,100392.13
2022-10-14T19:26:02.071Z,100389.21
2022-10-14T19:28:50.501Z,100385.95
2022-10-14T19:32:12.498Z,100388.86
2022-10-14T19:34:53.286Z,100385.73
2022-10-14T19:37:49.086Z,100378.32
2022-10-14T19:40:45.765Z,100380.30
2022-10-14T19:43:22.808Z,100377.00
2022-10-14T19:46:04.345Z,100375.09
2022-10-14T19:49:00.397Z,100376.79
2022-10-14T19:51:31.526Z,100375.61
2022-10-14T19:54:07.535Z,100371.66
2022-10-14T19:57:05.128Z,100372.18
2022-10-14T19:59:48.411Z,100372.66
2022-10-14T20:02:23.506Z,100371.38
2022-10-14T20:05:22.347Z,100370.48
2022-10-14T20:08:22.478Z,100369.53
2022-10-14T20:11:05.863Z,100372.27
2022-10-14T20:13:55.879Z,100372.55
2022-10-14T20:16:40.454Z,100374.08
2022-10-14T20:19:18.972Z,100372.45
2022-10-14T20:22:02.062Z,100371.17
2022-10-14T20:24:40.640Z,100373.61
2022-10-14T20:27:17.594Z,100371.15
2022-10-14T20:29:52.959Z,100376.50
2022-10-14T20:32:47.634Z,100377.50
2022-10-14T20:38:46.312Z,100367.11
2022-10-14T20:41:23.403Z,100367.04
2022-10-14T20:43:58.876Z,100365.99
2022-10-14T20:46:50.506Z,100367.58
2022-10-14T20:49:56.300Z,100365.05
2022-10-14T20:53:00.442Z,100363.20
2022-10-14T20:56:10.491Z,100359.35
2022-10-14T20:58:47.119Z,100358.09
2022-10-14T21:01:33.988Z,100356.88
2022-10-14T21:04:10.974Z,100355.50
2022-10-14T21:07:05.635Z,100359.63
2022-10-14T21:09:51.296Z,100362.41
2022-10-14T21:12:30.221Z,100359.20
2022-10-14T21:15:07.436Z,100356.04
2022-10-14T21:17:55.946Z,100353.42
2022-10-14T21:20:42.946Z,100356.09
2022-10-14T21:23:39.219Z,100352.36
2022-10-14T21:26:15.485Z,100351.14
2022-10-14T21:29:17.484Z,100348.65
2022-10-14T21:31:59.450Z,100347.96
2022-10-14T21:34:39.154Z,100344.64
2022-10-14T21:37:27.666Z,100338.13
2022-10-14T21:40:00.083Z,100338.71
2022-10-14T21:43:03.257Z,100339.25
2022-10-14T21:45:59.011Z,100338.16
2022-10-14T21:52:53.256Z,100332.71
2022-10-14T21:55:30.400Z,100333.75
2022-10-14T21:58:14.304Z,100329.10
2022-10-14T22:01:23.493Z,100328.79
2022-10-14T22:04:09.596Z,100329.86
2022-10-14T22:07:01.474Z,100327.45
2022-10-14T22:09:47.077Z,100324.20
2022-10-14T22:12:39.009Z,100325.27
2022-10-14T22:15:27.741Z,100320.06
2022-10-14T22:18:28.404Z,100322.23
2022-10-14T22:21:13.132Z,100318.97
2022-10-14T22:24:01.186Z,100317.15
2022-10-14T22:26:49.139Z,100315.98
2022-10-14T22:29:55.328Z,100314.22
2022-10-14T22:32:38.889Z,100312.91
2022-10-14T22:35:38.743Z,100314.05
2022-10-14T22:38:24.043Z,100316.75
2022-10-14T22:41:16.074Z,100316.87
2022-10-14T22:43:52.918Z,100316.18
2022-10-14T22:46:43.371Z,100313.85
2022-10-14T22:49:30.305Z,100312.14
2022-10-14T22:52:09.229Z,100312.91
2022-10-14T22:54:57.350Z,100312.33
2022-10-14T22:58:01.180Z,100310.04
2022-10-14T23:01:03.747Z,100309.33
2022-10-14T23:03:50.909Z,100311.15
2022-10-14T23:06:50.495Z,100308.29
2022-10-14T23:09:52.245Z,100312.58
2022-10-14T23:12:57.046Z,100312.33
2022-10-14T23:15:43.972Z,100312.66
2022-10-14T23:18:38.166Z,100312.36
2022-10-14T23:21:45.196Z,100308.82
2022-10-14T23:24:31.910Z,100309.47
2022-10-14T23:27:13.874Z,100312.69
2022-10-14T23:30:03.254Z,100316.48
2022-10-14T23:32:49.893Z,100319.28
2022-10-14T23:35:43.963Z,100318.96
2022-10-14T23:38:34.112Z,100315.88
2022-10-14T23:41:16.457Z,100313.66
2022-10-14T23:44:03.862Z,100313.61
2022-10-14T23:46:53.440Z,100310.73
2022-10-14T23:49:40.034Z,100309.80
2022-10-14T23:55:57.078Z,100307.11
2022-10-14T23:58:42.353Z,100306.06
